Time;durP1;ratioP1;P1;durP2;ratioP2;P2;SDS_P1;SDS_P2;PMS_P1;PMS_P2;Temp;Humidity;BMP_temperature;BMP_pressure;BME280_temperature;BME280_humidity;BME280_pressure;Samples;Min_cycle;Max_cycle;Signal;HPM_P1;HPM_P2
2023/09/15 00:02:24;;;;;;;13.65;7.43;;;;;;;;;;5057037;28;20131;-69
2023/09/15 00:04:51;;;;;;;17.23;7.47;;;;;;;;;;5056583;28;20044;-69
2023/09/15 00:07:17;;;;;;;14.00;7.72;;;;;;;;;;5040157;28;20105;-69
2023/09/15 00:09:43;;;;;;;20.17;8.05;;;;;;;;;;5023689;28;20028;-69
2023/09/15 00:12:09;;;;;;;15.77;7.95;;;;;;;;;;5073262;28;20047;-69
2023/09/15 00:14:34;;;;;;;16.80;7.25;;;;;;;;;;5040124;28;20036;-69
2023/09/15 00:17:00;;;;;;;16.30;7.15;;;;;;;;;;5073120;28;20372;-69
2023/09/15 00:19:26;;;;;;;17.95;7.85;;;;;;;;;;5056613;28;20033;-68
2023/09/15 00:21:52;;;;;;;20.48;7.63;;;;;;;;;;5056710;28;20036;-68
2023/09/15 00:24:18;;;;;;;13.82;7.50;;;;;;;;;;5056768;28;20029;-68
2023/09/15 00:26:44;;;;;;;19.88;7.10;;;;;;;;;;5057410;28;20119;-68
2023/09/15 00:29:11;;;;;;;19.63;7.75;;;;;;;;;;5074875;28;20067;-68
2023/09/15 00:31:39;;;;;;;19.40;7.00;;;;;;;;;;5058491;28;20051;-68
2023/09/15 00:34:05;;;;;;;21.35;7.53;;;;;;;;;;5056348;28;20048;-68
2023/09/15 00:36:32;;;;;;;13.38;6.88;;;;;;;;;;5039665;28;20040;-68
2023/09/15 00:38:58;;;;;;;15.20;6.90;;;;;;;;;;5026900;28;20047;-68
2023/09/15 00:41:24;;;;;;;33.28;7.97;;;;;;;;;;5077356;28;20032;-68
2023/09/15 00:43:50;;;;;;;31.40;7.70;;;;;;;;;;5093825;28;20024;-68
2023/09/15 00:46:16;;;;;;;24.13;7.93;;;;;;;;;;5076379;28;20032;-68
2023/09/15 00:48:41;;;;;;;27.30;7.93;;;;;;;;;;5094797;28;20130;-68
2023/09/15 00:51:08;;;;;;;26.00;8.02;;;;;;;;;;5093721;28;20415;-68
2023/09/15 00:53:36;;;;;;;22.63;8.45;;;;;;;;;;5060683;28;20084;-68
2023/09/15 00:56:03;;;;;;;23.48;8.10;;;;;;;;;;5094652;28;20052;-69
2023/09/15 00:58:29;;;;;;;31.23;8.10;;;;;;;;;;5076787;28;20130;-70
2023/09/15 01:00:55;;;;;;;31.52;8.10;;;;;;;;;;5076680;28;20457;-67
2023/09/15 01:03:21;;;;;;;40.40;8.52;;;;;;;;;;5093844;28;20024;-71
2023/09/15 01:05:48;;;;;;;36.88;8.00;;;;;;;;;;5078466;28;20036;-67
2023/09/15 01:08:14;;;;;;;31.52;9.45;;;;;;;;;;5096906;28;20464;-68
2023/09/15 01:10:40;;;;;;;42.92;8.50;;;;;;;;;;5094566;28;20126;-67
2023/09/15 01:13:06;;;;;;;29.70;9.18;;;;;;;;;;5094676;28;20121;-68
2023/09/15 01:15:35;;;;;;;28.27;8.10;;;;;;;;;;5093449;28;20055;-69
2023/09/15 01:18:07;;;;;;;48.22;8.48;;;;;;;;;;5076785;28;20028;-68
2023/09/15 01:20:45;;;;;;;22.95;8.73;;;;;;;;;;5077069;28;20036;-68
2023/09/15 01:23:26;;;;;;;25.77;8.73;;;;;;;;;;5076763;28;20386;-67
2023/09/15 01:26:04;;;;;;;23.90;8.13;;;;;;;;;;5092926;28;20036;-68
2023/09/15 01:28:53;;;;;;;43.88;8.55;;;;;;;;;;5075960;28;20040;-68
2023/09/15 01:31:19;;;;;;;22.50;8.02;;;;;;;;;;5093096;28;20374;-72
2023/09/15 01:33:45;;;;;;;37.17;8.70;;;;;;;;;;5094136;28;20028;-67
2023/09/15 01:36:11;;;;;;;28.98;8.50;;;;;;;;;;5092646;28;20044;-69
2023/09/15 01:38:38;;;;;;;28.08;8.10;;;;;;;;;;5071449;28;20105;-69
2023/09/15 01:41:04;;;;;;;26.15;8.25;;;;;;;;;;5054090;28;20152;-69
2023/09/15 01:43:30;;;;;;;33.40;8.30;;;;;;;;;;5055271;28;20048;-71
2023/09/15 01:45:56;;;;;;;25.90;7.47;;;;;;;;;;5071413;28;20350;-68
2023/09/15 01:48:22;;;;;;;26.50;7.30;;;;;;;;;;5056425;28;20160;-73
2023/09/15 01:50:49;;;;;;;20.30;8.02;;;;;;;;;;5070839;28;20071;-68
2023/09/15 01:53:15;;;;;;;20.10;8.32;;;;;;;;;;5038236;28;20036;-68
2023/09/15 01:55:42;;;;;;;19.67;8.05;;;;;;;;;;5054638;28;20114;-70
2023/09/15 01:58:07;;;;;;;25.48;7.93;;;;;;;;;;5021595;28;20110;-68
2023/09/15 02:00:34;;;;;;;24.92;8.10;;;;;;;;;;5054536;28;20040;-69
2023/09/15 02:03:00;;;;;;;23.38;8.93;;;;;;;;;;5054470;28;20055;-69
2023/09/15 02:05:25;;;;;;;23.83;8.63;;;;;;;;;;5037943;28;20507;-69
2023/09/15 02:07:52;;;;;;;26.33;8.07;;;;;;;;;;5054642;28;20035;-73
2023/09/15 02:10:18;;;;;;;16.13;8.48;;;;;;;;;;5067677;28;20052;-69
2023/09/15 02:12:45;;;;;;;24.08;8.27;;;;;;;;;;5108938;28;20070;-69
2023/09/15 02:15:14;;;;;;;15.75;8.35;;;;;;;;;;5075165;28;20044;-69
2023/09/15 02:17:40;;;;;;;15.38;7.90;;;;;;;;;;5092183;28;20210;-69
2023/09/15 02:20:13;;;;;;;28.83;8.57;;;;;;;;;;5092078;28;20140;-69
2023/09/15 02:22:42;;;;;;;14.52;7.38;;;;;;;;;;5058739;28;20122;-69
2023/09/15 02:25:16;;;;;;;17.13;7.60;;;;;;;;;;5092677;28;20032;-69
2023/09/15 02:27:42;;;;;;;16.33;8.40;;;;;;;;;;5076542;28;20031;-69
2023/09/15 02:30:08;;;;;;;21.17;8.23;;;;;;;;;;5076641;28;20028;-70
2023/09/15 02:32:36;;;;;;;19.80;7.68;;;;;;;;;;5092908;28;20044;-68
2023/09/15 02:35:03;;;;;;;16.70;7.97;;;;;;;;;;5092801;28;20054;-67
2023/09/15 02:37:32;;;;;;;12.80;7.60;;;;;;;;;;5074937;28;20036;-68
2023/09/15 02:39:58;;;;;;;15.43;7.57;;;;;;;;;;5092740;28;20040;-68
2023/09/15 02:42:24;;;;;;;13.35;7.65;;;;;;;;;;5092062;28;20032;-69
2023/09/15 02:44:49;;;;;;;15.55;7.82;;;;;;;;;;5092241;28;20126;-69
2023/09/15 02:47:16;;;;;;;13.65;7.95;;;;;;;;;;5058609;28;20161;-70
2023/09/15 02:49:42;;;;;;;18.88;7.63;;;;;;;;;;5080520;28;20036;-70
2023/09/15 02:52:08;;;;;;;17.42;7.75;;;;;;;;;;5114109;28;20061;-68
2023/09/15 02:54:34;;;;;;;12.70;7.13;;;;;;;;;;5075632;28;20459;-69
2023/09/15 02:57:00;;;;;;;16.48;7.85;;;;;;;;;;5074523;28;20046;-68
2023/09/15 02:59:26;;;;;;;17.00;8.00;;;;;;;;;;5091445;28;20078;-74
2023/09/15 03:01:52;;;;;;;15.95;7.80;;;;;;;;;;5091624;28;20039;-71
2023/09/15 03:04:21;;;;;;;22.00;8.23;;;;;;;;;;5074839;28;20085;-70
2023/09/15 03:06:47;;;;;;;20.35;8.65;;;;;;;;;;5058302;28;20470;-70
2023/09/15 03:09:13;;;;;;;29.02;8.95;;;;;;;;;;5074013;28;20119;-70
2023/09/15 03:11:39;;;;;;;13.00;7.68;;;;;;;;;;5108565;28;20424;-70
2023/09/15 03:14:08;;;;;;;13.77;8.05;;;;;;;;;;5091265;28;20080;-70
2023/09/15 03:16:33;;;;;;;12.90;7.35;;;;;;;;;;5049682;28;20063;-68
2023/09/15 03:19:00;;;;;;;19.40;8.02;;;;;;;;;;5016956;28;20040;-69
2023/09/15 03:21:27;;;;;;;17.30;7.38;;;;;;;;;;5033607;28;20049;-72
2023/09/15 03:23:53;;;;;;;15.02;8.05;;;;;;;;;;5001333;28;20061;-68
2023/09/15 03:26:19;;;;;;;13.45;7.75;;;;;;;;;;5010489;28;20049;-68
2023/09/15 03:28:49;;;;;;;19.02;7.75;;;;;;;;;;4993985;28;20100;-67
2023/09/15 03:31:15;;;;;;;19.55;7.97;;;;;;;;;;4994084;28;20054;-68
2023/09/15 03:33:41;;;;;;;16.40;7.63;;;;;;;;;;4977621;28;20524;-68
2023/09/15 03:36:07;;;;;;;15.32;8.05;;;;;;;;;;4976999;28;20523;-68
2023/09/15 03:38:33;;;;;;;16.15;7.72;;;;;;;;;;5010637;28;20544;-68
2023/09/15 03:41:00;;;;;;;15.02;7.63;;;;;;;;;;4994077;28;20120;-69
2023/09/15 03:43:26;;;;;;;16.05;7.82;;;;;;;;;;5010800;28;20037;-72
2023/09/15 03:45:52;;;;;;;15.07;7.53;;;;;;;;;;4995072;28;20546;-68
2023/09/15 03:48:18;;;;;;;14.15;8.38;;;;;;;;;;5012348;28;20129;-67
2023/09/15 03:50:47;;;;;;;16.60;8.25;;;;;;;;;;5025122;28;20068;-66
2023/09/15 03:53:13;;;;;;;13.38;7.50;;;;;;;;;;5025699;28;20028;-67
2023/09/15 03:55:39;;;;;;;20.02;8.50;;;;;;;;;;5009708;28;20490;-71
2023/09/15 03:58:05;;;;;;;13.52;7.35;;;;;;;;;;5027960;28;20029;-67
2023/09/15 04:00:31;;;;;;;13.07;8.20;;;;;;;;;;5043756;28;20475;-67
2023/09/15 04:02:57;;;;;;;14.82;7.68;;;;;;;;;;5017674;28;20064;-67
2023/09/15 04:05:23;;;;;;;13.05;7.35;;;;;;;;;;5057113;28;20042;-68
2023/09/15 04:07:50;;;;;;;16.98;7.10;;;;;;;;;;5073690;28;20032;-68
2023/09/15 04:10:15;;;;;;;16.65;7.97;;;;;;;;;;5072010;28;20044;-69
2023/09/15 04:12:42;;;;;;;12.70;7.13;;;;;;;;;;5057054;28;20052;-69
2023/09/15 04:15:10;;;;;;;16.20;7.68;;;;;;;;;;5074063;28;20043;-68
2023/09/15 04:17:37;;;;;;;16.52;7.13;;;;;;;;;;5086665;28;20093;-70
2023/09/15 04:20:08;;;;;;;14.88;7.80;;;;;;;;;;5056197;28;20078;-69
2023/09/15 04:22:34;;;;;;;16.50;7.30;;;;;;;;;;5059719;28;20123;-69
2023/09/15 04:25:00;;;;;;;22.10;7.97;;;;;;;;;;5076544;28;20122;-74
2023/09/15 04:27:25;;;;;;;16.38;6.20;;;;;;;;;;5077904;28;20052;-69
2023/09/15 04:29:55;;;;;;;15.27;8.40;;;;;;;;;;5093808;28;20040;-68
2023/09/15 04:32:24;;;;;;;;;;;;;;;;;;5077465;28;20554;-66
2023/09/15 04:34:51;;;;;;;17.95;7.47;;;;;;;;;;5075956;28;20011;-69
2023/09/15 04:37:17;;;;;;;13.10;7.15;;;;;;;;;;5076028;28;20168;-67
2023/09/15 04:39:43;;;;;;;23.70;8.70;;;;;;;;;;5092732;28;20454;-71
2023/09/15 04:42:10;;;;;;;21.27;9.13;;;;;;;;;;5076099;28;20062;-67
2023/09/15 04:44:36;;;;;;;23.25;8.80;;;;;;;;;;5076933;28;20024;-67
2023/09/15 04:47:01;;;;;;;24.70;8.45;;;;;;;;;;5095367;28;20431;-67
2023/09/15 04:49:28;;;;;;;28.48;9.18;;;;;;;;;;5094949;28;20096;-67
2023/09/15 04:51:54;;;;;;;30.00;9.63;;;;;;;;;;5076796;28;20035;-67
2023/09/15 04:54:22;;;;;;;26.00;9.98;;;;;;;;;;5076785;28;20028;-69
2023/09/15 04:56:47;;;;;;;26.23;9.77;;;;;;;;;;5094735;28;20398;-67
2023/09/15 04:59:16;;;;;;;34.30;10.40;;;;;;;;;;5075249;28;20101;-70
2023/09/15 05:01:43;;;;;;;27.63;9.77;;;;;;;;;;5074920;28;20139;-69
2023/09/15 05:04:10;;;;;;;25.40;9.57;;;;;;;;;;5075059;28;20089;-68
2023/09/15 05:06:37;;;;;;;25.75;10.48;;;;;;;;;;5073028;28;20124;-68
2023/09/15 05:09:08;;;;;;;26.55;9.93;;;;;;;;;;5071583;28;20032;-67
2023/09/15 05:11:38;;;;;;;28.83;10.50;;;;;;;;;;5076030;28;20185;-67
2023/09/15 05:14:04;;;;;;;33.15;11.00;;;;;;;;;;5072060;28;20051;-68
2023/09/15 05:16:30;;;;;;;44.80;11.25;;;;;;;;;;5074362;28;20040;-67
2023/09/15 05:18:56;;;;;;;41.85;12.27;;;;;;;;;;5072777;28;20239;-67
2023/09/15 05:21:22;;;;;;;32.83;11.07;;;;;;;;;;5075856;28;20416;-67
2023/09/15 05:23:48;;;;;;;48.83;11.82;;;;;;;;;;5074590;28;20028;-69
2023/09/15 05:26:15;;;;;;;48.55;12.73;;;;;;;;;;5091483;28;20036;-68
2023/09/15 05:28:41;;;;;;;29.90;10.40;;;;;;;;;;5071539;28;20024;-68
2023/09/15 05:31:07;;;;;;;48.25;11.95;;;;;;;;;;5066051;28;20036;-68
2023/09/15 05:33:36;;;;;;;42.85;12.48;;;;;;;;;;5095483;28;20477;-68
2023/09/15 05:36:04;;;;;;;42.72;11.35;;;;;;;;;;5093156;28;20071;-72
2023/09/15 05:38:29;;;;;;;43.47;11.15;;;;;;;;;;5072759;28;20530;-68
2023/09/15 05:40:55;;;;;;;37.53;11.82;;;;;;;;;;5092837;28;20124;-68
2023/09/15 05:43:21;;;;;;;49.05;12.50;;;;;;;;;;5094570;28;20032;-68
2023/09/15 05:45:49;;;;;;;39.85;10.95;;;;;;;;;;5093840;28;20446;-68
2023/09/15 05:48:17;;;;;;;64.75;11.40;;;;;;;;;;5094292;28;20024;-68
2023/09/15 05:50:44;;;;;;;54.83;12.55;;;;;;;;;;5093212;28;20359;-68
2023/09/15 05:53:10;;;;;;;55.88;12.93;;;;;;;;;;5089357;28;20024;-68
2023/09/15 05:55:36;;;;;;;62.88;12.77;;;;;;;;;;5092967;28;20055;-71
2023/09/15 05:58:02;;;;;;;38.75;11.88;;;;;;;;;;5093503;28;20074;-68
2023/09/15 06:00:28;;;;;;;50.00;11.30;;;;;;;;;;5092549;28;20040;-68
2023/09/15 06:02:54;;;;;;;39.65;11.60;;;;;;;;;;5076215;28;20370;-69
2023/09/15 06:05:22;;;;;;;42.05;12.52;;;;;;;;;;5095004;28;20036;-68
2023/09/15 06:07:51;;;;;;;49.17;11.52;;;;;;;;;;5092040;28;20043;-68
2023/09/15 06:10:17;;;;;;;41.70;12.05;;;;;;;;;;5075803;28;20044;-68
2023/09/15 06:12:43;;;;;;;28.17;10.75;;;;;;;;;;5075131;28;20051;-68
2023/09/15 06:15:09;;;;;;;24.55;10.25;;;;;;;;;;5092953;28;20431;-68
2023/09/15 06:17:35;;;;;;;25.33;10.70;;;;;;;;;;5092138;28;20143;-68
2023/09/15 06:20:01;;;;;;;15.82;7.35;;;;;;;;;;5093491;28;20174;-68
2023/09/15 06:22:27;;;;;;;17.52;8.82;;;;;;;;;;5092879;28;20028;-68
2023/09/15 06:24:52;;;;;;;27.42;8.80;;;;;;;;;;5095478;28;20374;-68
2023/09/15 06:27:18;;;;;;;14.10;7.72;;;;;;;;;;5094559;28;20092;-68
2023/09/15 06:29:44;;;;;;;14.52;7.97;;;;;;;;;;5093896;28;20367;-68
2023/09/15 06:32:09;;;;;;;17.45;7.60;;;;;;;;;;5075627;28;20032;-68
2023/09/15 06:34:35;;;;;;;21.83;8.45;;;;;;;;;;5092686;28;20050;-71
2023/09/15 06:37:04;;;;;;;21.17;8.60;;;;;;;;;;5092538;28;20118;-68
2023/09/15 06:39:30;;;;;;;22.85;8.18;;;;;;;;;;5075938;28;20050;-68
2023/09/15 06:41:57;;;;;;;19.13;8.60;;;;;;;;;;5094011;28;20039;-68
2023/09/15 06:44:23;;;;;;;13.05;7.25;;;;;;;;;;5077887;28;20044;-68
2023/09/15 06:46:48;;;;;;;12.65;5.70;;;;;;;;;;5093826;28;20135;-68
2023/09/15 06:49:21;;;;;;;14.98;6.57;;;;;;;;;;5091658;28;20038;-68
2023/09/15 06:51:49;;;;;;;15.73;6.22;;;;;;;;;;5074875;28;20398;-68
2023/09/15 06:54:15;;;;;;;8.90;5.82;;;;;;;;;;5092067;28;20036;-68
2023/09/15 06:56:40;;;;;;;13.63;5.35;;;;;;;;;;5076296;28;20044;-68
2023/09/15 06:59:06;;;;;;;11.55;5.88;;;;;;;;;;5092181;28;20119;-69
2023/09/15 07:01:31;;;;;;;13.75;6.28;;;;;;;;;;5091792;28;20038;-68
2023/09/15 07:03:58;;;;;;;13.88;5.90;;;;;;;;;;5074971;28;20062;-69
2023/09/15 07:06:24;;;;;;;11.07;5.45;;;;;;;;;;5092334;28;20028;-69
2023/09/15 07:08:49;;;;;;;15.68;6.13;;;;;;;;;;5092240;28;20036;-68
2023/09/15 07:11:15;;;;;;;7.93;4.03;;;;;;;;;;5091365;28;20619;-68
2023/09/15 07:13:41;;;;;;;12.70;5.15;;;;;;;;;;5091411;28;20111;-69
2023/09/15 07:16:07;;;;;;;17.13;6.55;;;;;;;;;;5091413;28;20143;-68
2023/09/15 07:18:32;;;;;;;11.75;4.57;;;;;;;;;;5092086;28;20036;-69
2023/09/15 07:20:59;;;;;;;12.35;5.18;;;;;;;;;;5074183;28;20085;-69
2023/09/15 07:23:25;;;;;;;8.38;4.68;;;;;;;;;;5074142;28;20023;-73
2023/09/15 07:25:50;;;;;;;12.60;5.82;;;;;;;;;;5108061;28;20438;-68
2023/09/15 07:28:16;;;;;;;7.75;4.55;;;;;;;;;;5091269;28;20044;-69
2023/09/15 07:30:41;;;;;;;7.28;4.15;;;;;;;;;;5091156;28;20047;-69
2023/09/15 07:33:08;;;;;;;9.10;3.95;;;;;;;;;;5091100;28;20143;-70
2023/09/15 07:35:36;;;;;;;9.70;4.15;;;;;;;;;;5074542;28;20132;-69
2023/09/15 07:38:05;;;;;;;6.85;3.85;;;;;;;;;;5074188;28;20510;-70
2023/09/15 07:40:31;;;;;;;11.88;4.40;;;;;;;;;;5092161;28;20482;-70
2023/09/15 07:42:56;;;;;;;16.13;4.43;;;;;;;;;;5091621;28;20129;-69
2023/09/15 07:45:23;;;;;;;9.07;4.00;;;;;;;;;;5090683;28;20032;-69
2023/09/15 07:47:49;;;;;;;12.57;4.28;;;;;;;;;;5090742;28;20051;-69
2023/09/15 07:50:17;;;;;;;6.82;3.50;;;;;;;;;;5073841;28;20036;-69
2023/09/15 07:52:46;;;;;;;10.65;4.20;;;;;;;;;;5090681;28;20055;-69
2023/09/15 07:55:12;;;;;;;9.07;4.82;;;;;;;;;;5092569;28;20067;-69
2023/09/15 07:57:40;;;;;;;12.48;4.10;;;;;;;;;;5095119;28;20116;-69
2023/09/15 08:00:07;;;;;;;8.27;4.03;;;;;;;;;;5095652;28;20470;-69
2023/09/15 08:02:39;;;;;;;19.60;4.55;;;;;;;;;;5094859;28;20027;-69
2023/09/15 08:05:05;;;;;;;8.73;4.20;;;;;;;;;;5094770;28;20040;-69
2023/09/15 08:07:31;;;;;;;7.72;3.95;;;;;;;;;;5078121;28;20484;-69
2023/09/15 08:09:56;;;;;;;9.88;4.07;;;;;;;;;;5060965;28;20147;-70
2023/09/15 08:12:23;;;;;;;12.48;3.65;;;;;;;;;;5094487;28;20074;-70
2023/09/15 08:14:49;;;;;;;14.85;3.90;;;;;;;;;;5095728;28;20134;-70
2023/09/15 08:17:15;;;;;;;4.75;3.15;;;;;;;;;;5095757;28;20126;-70
2023/09/15 08:19:42;;;;;;;8.35;2.63;;;;;;;;;;5077869;28;20046;-73
2023/09/15 08:22:08;;;;;;;12.70;3.10;;;;;;;;;;5094478;28;20126;-70
2023/09/15 08:24:33;;;;;;;10.27;2.90;;;;;;;;;;5094989;28;20050;-70
2023/09/15 08:26:59;;;;;;;4.20;2.20;;;;;;;;;;5077360;28;20481;-70
2023/09/15 08:29:25;;;;;;;7.35;2.20;;;;;;;;;;5094315;28;20055;-70
2023/09/15 08:31:51;;;;;;;6.38;2.20;;;;;;;;;;5094530;28;20382;-71
2023/09/15 08:34:16;;;;;;;8.13;2.03;;;;;;;;;;5095129;28;20043;-71
2023/09/15 08:36:42;;;;;;;7.30;2.40;;;;;;;;;;5095531;28;20048;-72
2023/09/15 08:39:08;;;;;;;3.80;2.10;;;;;;;;;;5095871;28;20408;-70
2023/09/15 08:41:39;;;;;;;2.35;1.98;;;;;;;;;;5076672;28;20040;-70
2023/09/15 08:44:06;;;;;;;5.57;2.17;;;;;;;;;;5094011;28;20070;-70
2023/09/15 08:46:32;;;;;;;10.65;2.60;;;;;;;;;;5076735;28;20039;-70
2023/09/15 08:48:59;;;;;;;9.15;2.47;;;;;;;;;;5096246;28;20036;-71
2023/09/15 08:51:26;;;;;;;5.97;2.50;;;;;;;;;;5060521;28;20043;-70
2023/09/15 08:53:52;;;;;;;5.40;2.90;;;;;;;;;;5094649;28;20470;-72
2023/09/15 08:56:18;;;;;;;11.52;2.60;;;;;;;;;;5093877;28;20397;-70
2023/09/15 08:58:45;;;;;;;6.35;2.78;;;;;;;;;;5093506;28;20039;-71
2023/09/15 09:01:11;;;;;;;3.38;2.30;;;;;;;;;;5093425;28;20455;-70
2023/09/15 09:03:38;;;;;;;7.70;2.35;;;;;;;;;;5092486;28;20138;-70
2023/09/15 09:06:12;;;;;;;5.43;2.30;;;;;;;;;;5093200;28;20061;-70
2023/09/15 09:08:40;;;;;;;6.25;2.20;;;;;;;;;;5094646;28;20043;-70
2023/09/15 09:11:06;;;;;;;9.07;2.25;;;;;;;;;;5076853;28;20040;-70
2023/09/15 09:13:32;;;;;;;8.73;2.45;;;;;;;;;;5077319;28;20493;-70
2023/09/15 09:15:58;;;;;;;11.30;2.72;;;;;;;;;;5092979;28;20551;-69
2023/09/15 09:18:24;;;;;;;5.55;2.17;;;;;;;;;;5094645;28;20040;-70
2023/09/15 09:20:50;;;;;;;6.97;2.33;;;;;;;;;;5095083;28;20482;-70
2023/09/15 09:23:20;;;;;;;6.40;2.50;;;;;;;;;;5093893;28;20039;-70
2023/09/15 09:25:47;;;;;;;8.13;2.30;;;;;;;;;;5093023;28;20058;-70
2023/09/15 09:28:13;;;;;;;8.63;2.47;;;;;;;;;;5093092;28;20036;-70
2023/09/15 09:30:39;;;;;;;10.40;2.00;;;;;;;;;;5093674;28;20032;-70
2023/09/15 09:33:05;;;;;;;11.68;2.30;;;;;;;;;;5093058;28;20449;-69
2023/09/15 09:35:31;;;;;;;7.60;2.08;;;;;;;;;;5092771;28;20475;-69
2023/09/15 09:37:59;;;;;;;5.95;2.03;;;;;;;;;;5059485;28;20044;-69
2023/09/15 09:40:26;;;;;;;8.13;1.80;;;;;;;;;;5093642;28;20115;-68
2023/09/15 09:42:52;;;;;;;7.13;2.20;;;;;;;;;;5076095;28;20036;-68
2023/09/15 09:45:24;;;;;;;4.10;2.00;;;;;;;;;;5093509;28;20039;-71
2023/09/15 09:47:50;;;;;;;2.85;1.88;;;;;;;;;;5093431;28;20039;-68
2023/09/15 09:50:16;;;;;;;6.55;2.17;;;;;;;;;;5095019;28;20060;-68
2023/09/15 09:52:42;;;;;;;4.72;2.30;;;;;;;;;;5109833;28;20032;-68
2023/09/15 09:55:09;;;;;;;4.65;2.05;;;;;;;;;;5093087;28;20071;-69
2023/09/15 09:57:38;;;;;;;7.65;2.30;;;;;;;;;;5092073;28;20039;-68
2023/09/15 10:00:04;;;;;;;4.47;2.10;;;;;;;;;;5108767;28;20036;-68
2023/09/15 10:02:31;;;;;;;5.32;2.47;;;;;;;;;;5093236;28;20142;-68
2023/09/15 10:04:56;;;;;;;4.88;2.40;;;;;;;;;;5076070;28;20035;-68
2023/09/15 10:07:22;;;;;;;7.18;2.50;;;;;;;;;;5093063;28;20040;-68
2023/09/15 10:09:49;;;;;;;5.28;2.70;;;;;;;;;;5093674;28;20458;-68
2023/09/15 10:12:15;;;;;;;6.00;2.45;;;;;;;;;;5092543;28;20024;-68
2023/09/15 10:14:40;;;;;;;5.70;2.60;;;;;;;;;;5092372;28;20097;-68
2023/09/15 10:17:06;;;;;;;3.92;2.38;;;;;;;;;;5092129;28;20056;-68
2023/09/15 10:19:33;;;;;;;13.10;2.70;;;;;;;;;;5091307;28;20123;-69
2023/09/15 10:22:00;;;;;;;7.45;2.55;;;;;;;;;;5093096;28;20043;-69
2023/09/15 10:24:26;;;;;;;12.07;2.60;;;;;;;;;;5093544;28;20047;-69
2023/09/15 10:26:52;;;;;;;4.95;2.40;;;;;;;;;;5093380;28;20074;-69
2023/09/15 10:29:18;;;;;;;7.28;2.70;;;;;;;;;;5092445;28;20075;-69
2023/09/15 10:31:44;;;;;;;8.20;2.28;;;;;;;;;;5092562;28;20497;-70
2023/09/15 10:34:10;;;;;;;17.50;3.00;;;;;;;;;;5075304;28;20489;-69
2023/09/15 10:36:36;;;;;;;7.78;2.53;;;;;;;;;;5094905;28;20048;-69
2023/09/15 10:39:12;;;;;;;5.55;2.38;;;;;;;;;;5094730;28;20036;-69
2023/09/15 10:41:38;;;;;;;8.45;2.90;;;;;;;;;;5092343;28;20097;-69
2023/09/15 10:44:04;;;;;;;6.75;2.63;;;;;;;;;;5092120;28;20040;-69
2023/09/15 10:46:42;;;;;;;5.70;2.60;;;;;;;;;;5092567;28;20035;-69
2023/09/15 10:49:19;;;;;;;3.95;2.90;;;;;;;;;;5092416;28;20109;-70
2023/09/15 10:51:57;;;;;;;8.60;2.67;;;;;;;;;;5092465;28;20049;-70
2023/09/15 10:54:29;;;;;;;6.78;2.65;;;;;;;;;;5108302;28;20040;-70
2023/09/15 10:56:55;;;;;;;5.82;2.63;;;;;;;;;;5091120;28;20070;-69
2023/09/15 10:59:21;;;;;;;5.20;2.90;;;;;;;;;;5108214;28;20459;-69
2023/09/15 11:01:46;;;;;;;6.10;2.67;;;;;;;;;;5091582;28;20040;-70
2023/09/15 11:04:17;;;;;;;10.25;2.92;;;;;;;;;;5092086;28;20040;-69
2023/09/15 11:06:48;;;;;;;7.55;2.80;;;;;;;;;;5092329;28;20067;-69
2023/09/15 11:09:14;;;;;;;4.22;2.55;;;;;;;;;;5108491;28;20035;-69
2023/09/15 11:11:44;;;;;;;5.35;2.42;;;;;;;;;;5091165;28;20036;-68
2023/09/15 11:14:15;;;;;;;6.85;2.70;;;;;;;;;;5107939;28;20091;-69
2023/09/15 11:16:51;;;;;;;6.50;3.15;;;;;;;;;;5092104;28;20075;-68
2023/09/15 11:19:18;;;;;;;7.65;3.15;;;;;;;;;;5091106;28;20078;-68
2023/09/15 11:21:47;;;;;;;8.05;3.47;;;;;;;;;;5107936;28;20191;-68
2023/09/15 11:24:13;;;;;;;8.05;3.00;;;;;;;;;;5091111;28;20128;-67
2023/09/15 11:26:46;;;;;;;7.00;2.92;;;;;;;;;;5091255;28;20118;-71
2023/09/15 11:29:12;;;;;;;7.60;3.80;;;;;;;;;;5091626;28;20907;-70
2023/09/15 11:31:37;;;;;;;11.15;3.70;;;;;;;;;;5074101;28;20058;-70
2023/09/15 11:34:05;;;;;;;7.05;3.38;;;;;;;;;;5074170;28;20071;-70
2023/09/15 11:36:36;;;;;;;7.88;3.58;;;;;;;;;;5072871;28;20096;-70
2023/09/15 11:39:11;;;;;;;7.35;3.25;;;;;;;;;;5075055;28;20040;-69
2023/09/15 11:41:38;;;;;;;6.78;3.17;;;;;;;;;;5073986;28;20444;-72
2023/09/15 11:44:06;;;;;;;7.45;3.15;;;;;;;;;;5073241;28;20462;-69
2023/09/15 11:46:36;;;;;;;9.48;3.95;;;;;;;;;;5029864;28;20048;-72
2023/09/15 11:49:02;;;;;;;5.88;3.17;;;;;;;;;;4997874;28;20084;-69
2023/09/15 11:51:28;;;;;;;8.18;3.42;;;;;;;;;;4996791;28;20041;-70
2023/09/15 11:53:56;;;;;;;8.13;3.45;;;;;;;;;;5013325;28;20042;-71
2023/09/15 11:56:24;;;;;;;5.85;3.63;;;;;;;;;;5030127;28;20096;-70
2023/09/15 11:58:50;;;;;;;12.00;3.40;;;;;;;;;;5013570;28;20049;-68
2023/09/15 12:01:16;;;;;;;8.98;4.18;;;;;;;;;;5029612;28;20041;-69
2023/09/15 12:03:43;;;;;;;7.57;3.72;;;;;;;;;;5013281;28;20037;-67
2023/09/15 12:06:10;;;;;;;5.78;3.45;;;;;;;;;;5013198;28;20033;-68
2023/09/15 12:08:36;;;;;;;12.40;3.50;;;;;;;;;;5031885;28;20391;-69
2023/09/15 12:11:03;;;;;;;8.35;3.50;;;;;;;;;;5032785;28;20041;-68
2023/09/15 12:13:35;;;;;;;8.07;3.95;;;;;;;;;;5049451;28;20088;-69
2023/09/15 12:16:01;;;;;;;5.97;3.58;;;;;;;;;;5049147;28;20049;-68
2023/09/15 12:18:26;;;;;;;8.05;3.15;;;;;;;;;;5032601;28;20166;-69
2023/09/15 12:20:53;;;;;;;8.10;3.17;;;;;;;;;;5033164;28;20029;-68
2023/09/15 12:23:18;;;;;;;8.52;3.33;;;;;;;;;;5028529;28;20048;-68
2023/09/15 12:25:44;;;;;;;9.32;3.55;;;;;;;;;;5073477;28;20043;-68
2023/09/15 12:28:11;;;;;;;9.27;3.78;;;;;;;;;;5073920;28;20051;-68
2023/09/15 12:30:43;;;;;;;5.88;3.42;;;;;;;;;;5052360;28;20136;-69
2023/09/15 12:33:09;;;;;;;7.90;3.78;;;;;;;;;;5028777;28;20042;-68
2023/09/15 12:35:39;;;;;;;6.18;3.67;;;;;;;;;;5029128;28;20057;-68
2023/09/15 12:38:04;;;;;;;5.68;3.20;;;;;;;;;;5028795;28;20053;-68
2023/09/15 12:40:32;;;;;;;10.27;3.88;;;;;;;;;;5012872;28;20038;-68
2023/09/15 12:42:58;;;;;;;5.05;3.35;;;;;;;;;;5001433;28;20252;-67
2023/09/15 12:45:26;;;;;;;5.25;3.28;;;;;;;;;;4995666;28;20163;-68
2023/09/15 12:47:51;;;;;;;5.82;3.33;;;;;;;;;;4995692;28;20042;-67
2023/09/15 12:50:17;;;;;;;6.07;3.50;;;;;;;;;;4995075;28;20068;-68
2023/09/15 12:52:43;;;;;;;8.70;3.50;;;;;;;;;;4995347;28;20077;-69
2023/09/15 12:55:08;;;;;;;8.20;3.70;;;;;;;;;;4977938;28;20030;-70
2023/09/15 12:57:34;;;;;;;7.00;3.30;;;;;;;;;;4971219;28;20417;-68
2023/09/15 13:00:01;;;;;;;7.32;3.33;;;;;;;;;;4939266;28;20577;-68
2023/09/15 13:02:27;;;;;;;9.82;3.38;;;;;;;;;;4989558;28;20062;-70
2023/09/15 13:04:53;;;;;;;5.35;3.42;;;;;;;;;;5040934;28;20059;-67
2023/09/15 13:07:19;;;;;;;6.38;3.80;;;;;;;;;;5051168;28;20498;-67
2023/09/15 13:09:45;;;;;;;7.68;3.70;;;;;;;;;;5034989;28;20486;-67
2023/09/15 13:12:10;;;;;;;8.15;3.85;;;;;;;;;;5016662;28;20159;-68
2023/09/15 13:14:36;;;;;;;5.90;3.47;;;;;;;;;;5035258;28;20157;-66
2023/09/15 13:17:04;;;;;;;7.25;4.03;;;;;;;;;;5002092;28;20055;-67
2023/09/15 13:19:30;;;;;;;7.00;3.90;;;;;;;;;;5034278;28;20431;-68
2023/09/15 13:21:57;;;;;;;5.15;3.60;;;;;;;;;;5028543;28;20441;-69
2023/09/15 13:24:23;;;;;;;8.82;3.38;;;;;;;;;;5058663;28;20024;-67
2023/09/15 13:26:49;;;;;;;8.75;3.72;;;;;;;;;;5066356;28;20123;-66
2023/09/15 13:29:14;;;;;;;9.15;3.70;;;;;;;;;;5084931;28;20058;-69
2023/09/15 13:31:40;;;;;;;8.32;4.00;;;;;;;;;;5094308;28;20067;-69
2023/09/15 13:34:05;;;;;;;9.10;4.10;;;;;;;;;;5075333;28;20123;-68
2023/09/15 13:36:31;;;;;;;15.25;4.07;;;;;;;;;;5093580;28;20048;-67
2023/09/15 13:38:57;;;;;;;7.05;3.80;;;;;;;;;;5110440;28;20036;-68
2023/09/15 13:41:24;;;;;;;6.20;3.13;;;;;;;;;;5090569;28;20035;-69
2023/09/15 13:43:50;;;;;;;8.48;4.30;;;;;;;;;;5073321;28;20050;-67
2023/09/15 13:46:16;;;;;;;8.57;4.35;;;;;;;;;;5089981;28;20043;-67
2023/09/15 13:48:42;;;;;;;8.77;4.07;;;;;;;;;;5091538;28;20492;-68
2023/09/15 13:51:08;;;;;;;9.35;4.30;;;;;;;;;;5107759;28;20028;-66
2023/09/15 13:53:35;;;;;;;10.35;5.97;;;;;;;;;;5108328;28;20032;-67
2023/09/15 13:56:03;;;;;;;5.68;3.20;;;;;;;;;;5058361;28;20052;-67
2023/09/15 13:58:29;;;;;;;7.03;4.25;;;;;;;;;;5091788;28;20573;-71
2023/09/15 14:00:56;;;;;;;9.63;4.47;;;;;;;;;;5092810;28;20131;-69
2023/09/15 14:03:22;;;;;;;7.32;3.60;;;;;;;;;;5092547;28;20129;-68
2023/09/15 14:05:48;;;;;;;6.80;4.25;;;;;;;;;;5092102;28;20043;-67
2023/09/15 14:08:14;;;;;;;7.07;3.30;;;;;;;;;;5090954;28;20028;-68
2023/09/15 14:10:40;;;;;;;7.85;3.47;;;;;;;;;;5091729;28;20131;-67
2023/09/15 14:13:06;;;;;;;8.38;2.97;;;;;;;;;;5055939;28;20130;-67
2023/09/15 14:15:31;;;;;;;10.15;3.25;;;;;;;;;;5090998;28;20127;-68
2023/09/15 14:17:57;;;;;;;6.82;3.35;;;;;;;;;;5058327;28;20067;-66
2023/09/15 14:20:23;;;;;;;8.25;3.72;;;;;;;;;;5091567;28;20124;-67
2023/09/15 14:22:49;;;;;;;8.18;3.25;;;;;;;;;;5092242;28;20028;-66
2023/09/15 14:25:16;;;;;;;7.00;2.60;;;;;;;;;;5108692;28;20385;-67
2023/09/15 14:27:41;;;;;;;5.10;2.97;;;;;;;;;;5094049;28;20184;-68
2023/09/15 14:30:07;;;;;;;9.75;5.28;;;;;;;;;;5091344;28;20040;-67
2023/09/15 14:32:33;;;;;;;7.03;4.93;;;;;;;;;;5074094;28;20459;-67
2023/09/15 14:34:58;;;;;;;14.73;6.50;;;;;;;;;;5052894;28;20188;-67